sensor_id;sensor_type;location;lat;lon;timestamp;P1;durP1;ratioP1;P2;durP2;ratioP2
16642;SDS011;8435;52.184;5.406;2023-09-19T00:00:04;4.37;;;1.60;;
16642;SDS011;8435;52.184;5.406;2023-09-19T00:02:35;6.53;;;1.50;;
16642;SDS011;8435;52.184;5.406;2023-09-19T00:05:04;6.47;;;1.93;;
16642;SDS011;8435;52.184;5.406;2023-09-19T00:07:34;4.90;;;2.00;;
16642;SDS011;8435;52.184;5.406;2023-09-19T00:10:04;4.60;;;1.57;;
16642;SDS011;8435;52.184;5.406;2023-09-19T00:12:33;5.63;;;2.07;;
16642;SDS011;8435;52.184;5.406;2023-09-19T00:15:00;2.83;;;1.73;;
16642;SDS011;8435;52.184;5.406;2023-09-19T00:17:31;3.70;;;1.93;;
16642;SDS011;8435;52.184;5.406;2023-09-19T00:20:03;3.10;;;1.70;;
16642;SDS011;8435;52.184;5.406;2023-09-19T00:22:34;6.07;;;2.00;;
16642;SDS011;8435;52.184;5.406;2023-09-19T00:25:05;2.70;;;1.87;;
16642;SDS011;8435;52.184;5.406;2023-09-19T00:27:32;3.73;;;1.50;;
16642;SDS011;8435;52.184;5.406;2023-09-19T00:29:59;4.57;;;1.70;;
16642;SDS011;8435;52.184;5.406;2023-09-19T00:32:29;4.00;;;1.73;;
16642;SDS011;8435;52.184;5.406;2023-09-19T00:34:59;3.20;;;1.60;;
16642;SDS011;8435;52.184;5.406;2023-09-19T00:37:26;2.23;;;1.50;;
16642;SDS011;8435;52.184;5.406;2023-09-19T00:39:53;4.43;;;1.87;;
16642;SDS011;8435;52.184;5.406;2023-09-19T00:42:27;4.97;;;1.60;;
16642;SDS011;8435;52.184;5.406;2023-09-19T00:44:54;3.87;;;1.70;;
16642;SDS011;8435;52.184;5.406;2023-09-19T00:47:21;4.00;;;1.87;;
16642;SDS011;8435;52.184;5.406;2023-09-19T00:49:47;2.30;;;1.77;;
16642;SDS011;8435;52.184;5.406;2023-09-19T00:52:19;4.27;;;1.80;;
16642;SDS011;8435;52.184;5.406;2023-09-19T00:54:46;1.63;;;1.20;;
16642;SDS011;8435;52.184;5.406;2023-09-19T00:57:17;1.80;;;1.50;;
16642;SDS011;8435;52.184;5.406;2023-09-19T00:59:47;3.30;;;1.53;;
16642;SDS011;8435;52.184;5.406;2023-09-19T01:02:16;3.50;;;1.80;;
16642;SDS011;8435;52.184;5.406;2023-09-19T01:04:43;3.73;;;1.47;;
16642;SDS011;8435;52.184;5.406;2023-09-19T01:07:11;7.40;;;1.90;;
16642;SDS011;8435;52.184;5.406;2023-09-19T01:09:41;5.23;;;2.10;;
16642;SDS011;8435;52.184;5.406;2023-09-19T01:12:08;2.63;;;1.43;;
16642;SDS011;8435;52.184;5.406;2023-09-19T01:14:38;2.37;;;1.60;;
16642;SDS011;8435;52.184;5.406;2023-09-19T01:17:14;3.53;;;1.60;;
16642;SDS011;8435;52.184;5.406;2023-09-19T01:20:00;3.30;;;1.30;;
16642;SDS011;8435;52.184;5.406;2023-09-19T01:22:48;3.60;;;1.43;;
16642;SDS011;8435;52.184;5.406;2023-09-19T01:28:34;2.20;;;1.73;;
16642;SDS011;8435;52.184;5.406;2023-09-19T01:31:12;3.20;;;1.50;;
16642;SDS011;8435;52.184;5.406;2023-09-19T01:33:59;3.07;;;1.53;;
16642;SDS011;8435;52.184;5.406;2023-09-19T01:36:30;3.70;;;1.37;;
16642;SDS011;8435;52.184;5.406;2023-09-19T01:38:59;2.83;;;1.63;;
16642;SDS011;8435;52.184;5.406;2023-09-19T01:41:33;4.47;;;2.07;;
16642;SDS011;8435;52.184;5.406;2023-09-19T01:44:12;2.87;;;1.60;;
16642;SDS011;8435;52.184;5.406;2023-09-19T01:46:47;4.30;;;1.70;;
16642;SDS011;8435;52.184;5.406;2023-09-19T01:49:17;3.10;;;1.83;;
16642;SDS011;8435;52.184;5.406;2023-09-19T01:51:53;1.87;;;1.60;;
16642;SDS011;8435;52.184;5.406;2023-09-19T01:54:30;2.67;;;1.50;;
16642;SDS011;8435;52.184;5.406;2023-09-19T01:57:05;5.27;;;1.80;;
16642;SDS011;8435;52.184;5.406;2023-09-19T01:59:37;1.50;;;1.40;;
16642;SDS011;8435;52.184;5.406;2023-09-19T02:02:10;3.10;;;1.60;;
16642;SDS011;8435;52.184;5.406;2023-09-19T02:04:40;3.57;;;1.83;;
16642;SDS011;8435;52.184;5.406;2023-09-19T02:07:06;2.33;;;1.77;;
16642;SDS011;8435;52.184;5.406;2023-09-19T02:09:39;3.27;;;2.00;;
16642;SDS011;8435;52.184;5.406;2023-09-19T02:12:07;3.60;;;1.97;;
16642;SDS011;8435;52.184;5.406;2023-09-19T02:14:35;3.87;;;1.80;;
16642;SDS011;8435;52.184;5.406;2023-09-19T02:17:03;5.10;;;2.07;;
16642;SDS011;8435;52.184;5.406;2023-09-19T02:19:34;5.50;;;1.80;;
16642;SDS011;8435;52.184;5.406;2023-09-19T02:22:03;3.90;;;1.70;;
16642;SDS011;8435;52.184;5.406;2023-09-19T02:24:35;2.70;;;1.73;;
16642;SDS011;8435;52.184;5.406;2023-09-19T02:27:02;3.73;;;1.60;;
16642;SDS011;8435;52.184;5.406;2023-09-19T02:29:32;3.90;;;1.83;;
16642;SDS011;8435;52.184;5.406;2023-09-19T02:32:00;6.27;;;2.20;;
16642;SDS011;8435;52.184;5.406;2023-09-19T02:34:31;5.73;;;2.10;;
16642;SDS011;8435;52.184;5.406;2023-09-19T02:37:02;3.30;;;1.90;;
16642;SDS011;8435;52.184;5.406;2023-09-19T02:39:30;4.77;;;2.00;;
16642;SDS011;8435;52.184;5.406;2023-09-19T02:41:57;3.50;;;1.80;;
16642;SDS011;8435;52.184;5.406;2023-09-19T02:44:24;8.17;;;2.27;;
16642;SDS011;8435;52.184;5.406;2023-09-19T02:46:50;5.40;;;2.47;;
16642;SDS011;8435;52.184;5.406;2023-09-19T02:49:17;3.77;;;2.20;;
16642;SDS011;8435;52.184;5.406;2023-09-19T02:51:44;3.57;;;2.20;;
16642;SDS011;8435;52.184;5.406;2023-09-19T02:54:14;3.10;;;1.73;;
16642;SDS011;8435;52.184;5.406;2023-09-19T02:56:42;3.47;;;2.17;;
16642;SDS011;8435;52.184;5.406;2023-09-19T02:59:09;5.90;;;2.30;;
16642;SDS011;8435;52.184;5.406;2023-09-19T03:01:36;6.80;;;2.50;;
16642;SDS011;8435;52.184;5.406;2023-09-19T03:04:03;10.13;;;2.60;;
16642;SDS011;8435;52.184;5.406;2023-09-19T03:06:32;5.27;;;2.10;;
16642;SDS011;8435;52.184;5.406;2023-09-19T03:08:59;8.93;;;2.43;;
16642;SDS011;8435;52.184;5.406;2023-09-19T03:11:27;4.70;;;2.07;;
16642;SDS011;8435;52.184;5.406;2023-09-19T03:13:54;5.00;;;2.50;;
16642;SDS011;8435;52.184;5.406;2023-09-19T03:16:21;8.17;;;2.87;;
16642;SDS011;8435;52.184;5.406;2023-09-19T03:18:50;6.00;;;1.97;;
16642;SDS011;8435;52.184;5.406;2023-09-19T03:21:20;7.00;;;2.33;;
16642;SDS011;8435;52.184;5.406;2023-09-19T03:23:47;3.73;;;2.20;;
16642;SDS011;8435;52.184;5.406;2023-09-19T03:26:14;4.80;;;2.20;;
16642;SDS011;8435;52.184;5.406;2023-09-19T03:28:43;7.17;;;2.63;;
16642;SDS011;8435;52.184;5.406;2023-09-19T03:31:11;7.53;;;2.47;;
16642;SDS011;8435;52.184;5.406;2023-09-19T03:33:37;8.13;;;2.70;;
16642;SDS011;8435;52.184;5.406;2023-09-19T03:36:04;7.23;;;2.60;;
16642;SDS011;8435;52.184;5.406;2023-09-19T03:38:32;10.83;;;2.40;;
16642;SDS011;8435;52.184;5.406;2023-09-19T03:40:59;5.43;;;2.17;;
16642;SDS011;8435;52.184;5.406;2023-09-19T03:43:26;6.73;;;2.20;;
16642;SDS011;8435;52.184;5.406;2023-09-19T03:45:55;6.57;;;2.57;;
16642;SDS011;8435;52.184;5.406;2023-09-19T03:48:22;5.17;;;2.20;;
16642;SDS011;8435;52.184;5.406;2023-09-19T03:50:49;6.87;;;2.37;;
16642;SDS011;8435;52.184;5.406;2023-09-19T03:53:17;7.07;;;2.20;;
16642;SDS011;8435;52.184;5.406;2023-09-19T03:55:44;8.57;;;2.40;;
16642;SDS011;8435;52.184;5.406;2023-09-19T03:58:13;6.40;;;2.50;;
16642;SDS011;8435;52.184;5.406;2023-09-19T04:00:40;8.37;;;1.97;;
16642;SDS011;8435;52.184;5.406;2023-09-19T04:03:08;5.53;;;2.67;;
16642;SDS011;8435;52.184;5.406;2023-09-19T04:05:43;8.03;;;2.20;;
16642;SDS011;8435;52.184;5.406;2023-09-19T04:08:11;6.17;;;2.20;;
16642;SDS011;8435;52.184;5.406;2023-09-19T04:10:38;4.93;;;2.00;;
16642;SDS011;8435;52.184;5.406;2023-09-19T04:13:05;6.60;;;2.17;;
16642;SDS011;8435;52.184;5.406;2023-09-19T04:15:32;5.07;;;2.37;;
16642;SDS011;8435;52.184;5.406;2023-09-19T04:17:59;7.60;;;2.20;;
16642;SDS011;8435;52.184;5.406;2023-09-19T04:20:29;6.30;;;2.37;;
16642;SDS011;8435;52.184;5.406;2023-09-19T04:22:57;5.40;;;2.30;;
16642;SDS011;8435;52.184;5.406;2023-09-19T04:25:25;7.40;;;2.60;;
16642;SDS011;8435;52.184;5.406;2023-09-19T04:27:52;9.03;;;2.70;;
16642;SDS011;8435;52.184;5.406;2023-09-19T04:30:19;6.47;;;2.20;;
16642;SDS011;8435;52.184;5.406;2023-09-19T04:32:46;6.17;;;2.47;;
16642;SDS011;8435;52.184;5.406;2023-09-19T04:35:15;5.30;;;2.10;;
16642;SDS011;8435;52.184;5.406;2023-09-19T04:37:44;3.60;;;1.73;;
16642;SDS011;8435;52.184;5.406;2023-09-19T04:40:11;5.03;;;2.17;;
16642;SDS011;8435;52.184;5.406;2023-09-19T04:42:42;5.17;;;2.20;;
16642;SDS011;8435;52.184;5.406;2023-09-19T04:45:09;4.87;;;2.27;;
16642;SDS011;8435;52.184;5.406;2023-09-19T04:47:39;7.70;;;2.13;;
16642;SDS011;8435;52.184;5.406;2023-09-19T04:50:09;4.07;;;1.80;;
16642;SDS011;8435;52.184;5.406;2023-09-19T04:52:39;9.07;;;2.60;;
16642;SDS011;8435;52.184;5.406;2023-09-19T04:55:10;5.97;;;2.57;;
16642;SDS011;8435;52.184;5.406;2023-09-19T04:57:42;6.53;;;2.40;;
16642;SDS011;8435;52.184;5.406;2023-09-19T05:00:11;7.37;;;2.27;;
16642;SDS011;8435;52.184;5.406;2023-09-19T05:02:40;7.27;;;2.10;;
16642;SDS011;8435;52.184;5.406;2023-09-19T05:05:07;6.40;;;2.30;;
16642;SDS011;8435;52.184;5.406;2023-09-19T05:07:35;5.47;;;2.37;;
16642;SDS011;8435;52.184;5.406;2023-09-19T05:10:02;5.23;;;2.10;;
16642;SDS011;8435;52.184;5.406;2023-09-19T05:12:33;8.43;;;2.63;;
16642;SDS011;8435;52.184;5.406;2023-09-19T05:15:00;5.33;;;2.43;;
16642;SDS011;8435;52.184;5.406;2023-09-19T05:17:28;6.70;;;2.40;;
16642;SDS011;8435;52.184;5.406;2023-09-19T05:19:55;5.10;;;2.20;;
16642;SDS011;8435;52.184;5.406;2023-09-19T05:22:22;6.30;;;2.13;;
16642;SDS011;8435;52.184;5.406;2023-09-19T05:24:50;5.57;;;2.23;;
16642;SDS011;8435;52.184;5.406;2023-09-19T05:27:19;5.40;;;2.10;;
16642;SDS011;8435;52.184;5.406;2023-09-19T05:29:47;5.37;;;2.50;;
16642;SDS011;8435;52.184;5.406;2023-09-19T05:32:15;6.37;;;2.33;;
16642;SDS011;8435;52.184;5.406;2023-09-19T05:34:44;5.10;;;2.10;;
16642;SDS011;8435;52.184;5.406;2023-09-19T05:37:14;9.37;;;4.47;;
16642;SDS011;8435;52.184;5.406;2023-09-19T05:39:41;9.03;;;3.80;;
16642;SDS011;8435;52.184;5.406;2023-09-19T05:42:10;5.60;;;2.70;;
16642;SDS011;8435;52.184;5.406;2023-09-19T05:44:37;6.77;;;2.73;;
16642;SDS011;8435;52.184;5.406;2023-09-19T05:47:05;3.87;;;1.90;;
16642;SDS011;8435;52.184;5.406;2023-09-19T05:49:34;9.87;;;3.60;;
16642;SDS011;8435;52.184;5.406;2023-09-19T05:52:02;8.07;;;4.10;;
16642;SDS011;8435;52.184;5.406;2023-09-19T05:54:30;9.53;;;3.30;;
16642;SDS011;8435;52.184;5.406;2023-09-19T05:56:58;7.00;;;2.40;;
16642;SDS011;8435;52.184;5.406;2023-09-19T05:59:25;7.33;;;2.47;;
16642;SDS011;8435;52.184;5.406;2023-09-19T06:01:51;6.13;;;2.20;;
16642;SDS011;8435;52.184;5.406;2023-09-19T06:04:21;5.43;;;2.90;;
16642;SDS011;8435;52.184;5.406;2023-09-19T06:06:48;7.43;;;2.83;;
16642;SDS011;8435;52.184;5.406;2023-09-19T06:09:16;6.47;;;2.43;;
16642;SDS011;8435;52.184;5.406;2023-09-19T06:11:44;6.03;;;2.27;;
16642;SDS011;8435;52.184;5.406;2023-09-19T06:14:13;6.40;;;2.17;;
16642;SDS011;8435;52.184;5.406;2023-09-19T06:16:42;7.03;;;2.70;;
16642;SDS011;8435;52.184;5.406;2023-09-19T06:19:09;7.67;;;2.33;;
16642;SDS011;8435;52.184;5.406;2023-09-19T06:21:38;5.83;;;2.43;;
16642;SDS011;8435;52.184;5.406;2023-09-19T06:24:05;8.90;;;2.97;;
16642;SDS011;8435;52.184;5.406;2023-09-19T06:26:32;6.37;;;2.80;;
16642;SDS011;8435;52.184;5.406;2023-09-19T06:28:59;6.97;;;2.37;;
16642;SDS011;8435;52.184;5.406;2023-09-19T06:31:26;7.93;;;2.63;;
16642;SDS011;8435;52.184;5.406;2023-09-19T06:33:53;9.20;;;5.23;;
16642;SDS011;8435;52.184;5.406;2023-09-19T06:36:20;9.47;;;5.43;;
16642;SDS011;8435;52.184;5.406;2023-09-19T06:38:48;7.00;;;3.00;;
16642;SDS011;8435;52.184;5.406;2023-09-19T06:41:16;9.23;;;3.23;;
16642;SDS011;8435;52.184;5.406;2023-09-19T06:43:43;9.00;;;2.90;;
16642;SDS011;8435;52.184;5.406;2023-09-19T06:46:10;5.80;;;2.93;;
16642;SDS011;8435;52.184;5.406;2023-09-19T06:48:38;4.70;;;2.20;;
16642;SDS011;8435;52.184;5.406;2023-09-19T06:51:06;5.47;;;2.27;;
16642;SDS011;8435;52.184;5.406;2023-09-19T06:53:35;6.93;;;2.33;;
16642;SDS011;8435;52.184;5.406;2023-09-19T06:56:04;6.20;;;2.23;;
16642;SDS011;8435;52.184;5.406;2023-09-19T06:58:31;8.00;;;2.67;;
16642;SDS011;8435;52.184;5.406;2023-09-19T07:01:01;7.37;;;2.50;;
16642;SDS011;8435;52.184;5.406;2023-09-19T07:03:28;6.00;;;2.17;;
16642;SDS011;8435;52.184;5.406;2023-09-19T07:05:55;8.07;;;2.53;;
16642;SDS011;8435;52.184;5.406;2023-09-19T07:08:23;5.67;;;2.47;;
16642;SDS011;8435;52.184;5.406;2023-09-19T07:10:50;4.50;;;2.40;;
16642;SDS011;8435;52.184;5.406;2023-09-19T07:13:19;6.30;;;2.50;;
16642;SDS011;8435;52.184;5.406;2023-09-19T07:15:46;3.67;;;1.87;;
16642;SDS011;8435;52.184;5.406;2023-09-19T07:18:15;5.53;;;2.40;;
16642;SDS011;8435;52.184;5.406;2023-09-19T07:20:46;7.30;;;2.33;;
16642;SDS011;8435;52.184;5.406;2023-09-19T07:23:15;8.13;;;2.77;;
16642;SDS011;8435;52.184;5.406;2023-09-19T07:25:43;5.17;;;2.20;;
16642;SDS011;8435;52.184;5.406;2023-09-19T07:28:11;9.33;;;3.00;;
16642;SDS011;8435;52.184;5.406;2023-09-19T07:30:39;5.97;;;2.40;;
16642;SDS011;8435;52.184;5.406;2023-09-19T07:33:07;8.37;;;2.60;;
16642;SDS011;8435;52.184;5.406;2023-09-19T07:35:36;7.17;;;2.13;;
16642;SDS011;8435;52.184;5.406;2023-09-19T07:38:04;8.17;;;3.00;;
16642;SDS011;8435;52.184;5.406;2023-09-19T07:40:31;8.33;;;2.60;;
16642;SDS011;8435;52.184;5.406;2023-09-19T07:43:03;10.37;;;2.70;;
16642;SDS011;8435;52.184;5.406;2023-09-19T07:45:30;7.90;;;2.47;;
16642;SDS011;8435;52.184;5.406;2023-09-19T07:47:58;9.23;;;2.35;;
16642;SDS011;8435;52.184;5.406;2023-09-19T07:50:26;6.93;;;2.50;;
16642;SDS011;8435;52.184;5.406;2023-09-19T07:52:53;10.23;;;2.58;;
16642;SDS011;8435;52.184;5.406;2023-09-19T07:55:21;7.93;;;2.38;;
16642;SDS011;8435;52.184;5.406;2023-09-19T07:57:50;6.18;;;2.72;;
16642;SDS011;8435;52.184;5.406;2023-09-19T08:00:17;6.13;;;2.63;;
16642;SDS011;8435;52.184;5.406;2023-09-19T08:02:44;7.28;;;2.67;;
16642;SDS011;8435;52.184;5.406;2023-09-19T08:05:14;8.05;;;2.50;;
16642;SDS011;8435;52.184;5.406;2023-09-19T08:07:43;5.80;;;2.45;;
16642;SDS011;8435;52.184;5.406;2023-09-19T08:10:14;5.25;;;2.42;;
16642;SDS011;8435;52.184;5.406;2023-09-19T08:12:41;6.22;;;2.50;;
16642;SDS011;8435;52.184;5.406;2023-09-19T08:15:11;8.90;;;2.90;;
16642;SDS011;8435;52.184;5.406;2023-09-19T08:17:39;7.20;;;2.88;;
16642;SDS011;8435;52.184;5.406;2023-09-19T08:20:06;6.22;;;2.72;;
16642;SDS011;8435;52.184;5.406;2023-09-19T08:22:42;6.35;;;2.25;;
16642;SDS011;8435;52.184;5.406;2023-09-19T08:25:11;8.35;;;3.00;;
16642;SDS011;8435;52.184;5.406;2023-09-19T08:27:38;9.30;;;3.40;;
16642;SDS011;8435;52.184;5.406;2023-09-19T08:30:05;5.95;;;2.30;;
16642;SDS011;8435;52.184;5.406;2023-09-19T08:32:33;6.78;;;2.92;;
16642;SDS011;8435;52.184;5.406;2023-09-19T08:34:59;7.43;;;2.72;;
16642;SDS011;8435;52.184;5.406;2023-09-19T08:37:26;9.23;;;3.13;;
16642;SDS011;8435;52.184;5.406;2023-09-19T08:39:54;9.18;;;3.08;;
16642;SDS011;8435;52.184;5.406;2023-09-19T08:42:22;5.45;;;2.30;;
16642;SDS011;8435;52.184;5.406;2023-09-19T08:44:52;6.53;;;2.72;;
16642;SDS011;8435;52.184;5.406;2023-09-19T08:47:23;7.57;;;2.75;;
16642;SDS011;8435;52.184;5.406;2023-09-19T08:50:04;7.00;;;3.17;;
16642;SDS011;8435;52.184;5.406;2023-09-19T08:52:41;6.15;;;2.90;;
16642;SDS011;8435;52.184;5.406;2023-09-19T08:55:11;8.98;;;2.78;;
16642;SDS011;8435;52.184;5.406;2023-09-19T08:57:45;8.52;;;2.92;;
16642;SDS011;8435;52.184;5.406;2023-09-19T09:00:14;8.73;;;2.70;;
16642;SDS011;8435;52.184;5.406;2023-09-19T09:02:43;7.80;;;2.67;;
16642;SDS011;8435;52.184;5.406;2023-09-19T09:05:12;7.72;;;3.03;;
16642;SDS011;8435;52.184;5.406;2023-09-19T09:07:41;9.70;;;2.90;;
16642;SDS011;8435;52.184;5.406;2023-09-19T09:10:11;9.80;;;2.92;;
16642;SDS011;8435;52.184;5.406;2023-09-19T09:12:38;8.80;;;2.60;;
16642;SDS011;8435;52.184;5.406;2023-09-19T09:15:06;7.13;;;2.67;;
16642;SDS011;8435;52.184;5.406;2023-09-19T09:17:36;6.50;;;2.55;;
16642;SDS011;8435;52.184;5.406;2023-09-19T09:20:04;7.35;;;2.50;;
16642;SDS011;8435;52.184;5.406;2023-09-19T09:22:35;5.25;;;2.25;;
16642;SDS011;8435;52.184;5.406;2023-09-19T09:25:05;6.18;;;2.50;;
16642;SDS011;8435;52.184;5.406;2023-09-19T09:27:34;11.25;;;2.58;;
16642;SDS011;8435;52.184;5.406;2023-09-19T09:30:01;4.32;;;2.17;;
16642;SDS011;8435;52.184;5.406;2023-09-19T09:32:30;7.90;;;2.38;;
16642;SDS011;8435;52.184;5.406;2023-09-19T09:35:00;7.28;;;2.50;;
16642;SDS011;8435;52.184;5.406;2023-09-19T09:37:29;5.60;;;1.85;;
16642;SDS011;8435;52.184;5.406;2023-09-19T09:39:57;6.75;;;2.80;;
16642;SDS011;8435;52.184;5.406;2023-09-19T09:42:45;6.57;;;2.60;;
16642;SDS011;8435;52.184;5.406;2023-09-19T09:45:15;6.38;;;2.63;;
16642;SDS011;8435;52.184;5.406;2023-09-19T09:47:44;6.38;;;2.50;;
16642;SDS011;8435;52.184;5.406;2023-09-19T09:50:25;7.13;;;2.50;;
16642;SDS011;8435;52.184;5.406;2023-09-19T09:52:55;5.80;;;2.65;;
16642;SDS011;8435;52.184;5.406;2023-09-19T09:55:32;7.80;;;2.58;;
16642;SDS011;8435;52.184;5.406;2023-09-19T09:58:28;6.05;;;2.58;;
16642;SDS011;8435;52.184;5.406;2023-09-19T10:00:57;6.65;;;2.03;;
16642;SDS011;8435;52.184;5.406;2023-09-19T10:03:31;7.05;;;2.47;;
16642;SDS011;8435;52.184;5.406;2023-09-19T10:06:04;6.28;;;2.75;;
16642;SDS011;8435;52.184;5.406;2023-09-19T10:08:59;8.02;;;2.60;;
16642;SDS011;8435;52.184;5.406;2023-09-19T10:11:37;7.65;;;2.55;;
16642;SDS011;8435;52.184;5.406;2023-09-19T10:14:09;8.50;;;2.38;;
16642;SDS011;8435;52.184;5.406;2023-09-19T10:16:40;5.53;;;2.25;;
16642;SDS011;8435;52.184;5.406;2023-09-19T10:19:12;9.50;;;2.95;;
16642;SDS011;8435;52.184;5.406;2023-09-19T10:21:42;5.70;;;2.25;;
16642;SDS011;8435;52.184;5.406;2023-09-19T10:24:11;7.97;;;2.42;;
16642;SDS011;8435;52.184;5.406;2023-09-19T10:26:42;5.03;;;2.25;;
16642;SDS011;8435;52.184;5.406;2023-09-19T10:29:12;6.53;;;2.30;;
16642;SDS011;8435;52.184;5.406;2023-09-19T10:31:41;12.32;;;2.83;;
16642;SDS011;8435;52.184;5.406;2023-09-19T10:34:12;4.93;;;2.13;;
16642;SDS011;8435;52.184;5.406;2023-09-19T10:36:44;5.93;;;2.25;;
16642;SDS011;8435;52.184;5.406;2023-09-19T10:39:12;6.50;;;2.40;;
16642;SDS011;8435;52.184;5.406;2023-09-19T10:41:47;7.70;;;2.22;;
16642;SDS011;8435;52.184;5.406;2023-09-19T10:44:20;5.82;;;2.42;;
16642;SDS011;8435;52.184;5.406;2023-09-19T10:46:50;6.00;;;1.88;;
16642;SDS011;8435;52.184;5.406;2023-09-19T10:49:19;6.38;;;1.92;;
16642;SDS011;8435;52.184;5.406;2023-09-19T10:51:47;8.18;;;2.28;;
16642;SDS011;8435;52.184;5.406;2023-09-19T10:54:20;3.85;;;1.55;;
16642;SDS011;8435;52.184;5.406;2023-09-19T10:56:51;3.78;;;1.50;;
16642;SDS011;8435;52.184;5.406;2023-09-19T10:59:25;3.58;;;1.58;;
16642;SDS011;8435;52.184;5.406;2023-09-19T11:01:56;5.30;;;1.90;;
16642;SDS011;8435;52.184;5.406;2023-09-19T11:04:24;5.72;;;1.92;;
16642;SDS011;8435;52.184;5.406;2023-09-19T11:07:00;2.90;;;1.50;;
16642;SDS011;8435;52.184;5.406;2023-09-19T11:09:42;5.78;;;1.92;;
16642;SDS011;8435;52.184;5.406;2023-09-19T11:24:27;6.43;;;2.00;;
16642;SDS011;8435;52.184;5.406;2023-09-19T11:27:08;7.35;;;1.75;;
16642;SDS011;8435;52.184;5.406;2023-09-19T11:29:38;4.82;;;1.88;;
16642;SDS011;8435;52.184;5.406;2023-09-19T11:32:06;6.28;;;2.15;;
16642;SDS011;8435;52.184;5.406;2023-09-19T11:34:39;4.43;;;2.00;;
16642;SDS011;8435;52.184;5.406;2023-09-19T11:40:44;6.05;;;2.28;;
16642;SDS011;8435;52.184;5.406;2023-09-19T11:43:32;7.03;;;2.03;;
16642;SDS011;8435;52.184;5.406;2023-09-19T11:46:08;5.10;;;2.08;;
16642;SDS011;8435;52.184;5.406;2023-09-19T11:48:37;3.13;;;1.40;;
16642;SDS011;8435;52.184;5.406;2023-09-19T11:51:14;5.63;;;1.60;;
16642;SDS011;8435;52.184;5.406;2023-09-19T11:53:47;5.32;;;2.10;;
16642;SDS011;8435;52.184;5.406;2023-09-19T11:56:17;4.65;;;1.60;;
16642;SDS011;8435;52.184;5.406;2023-09-19T11:58:46;3.00;;;1.52;;
16642;SDS011;8435;52.184;5.406;2023-09-19T12:01:21;3.80;;;1.58;;
16642;SDS011;8435;52.184;5.406;2023-09-19T12:03:52;4.18;;;1.55;;
16642;SDS011;8435;52.184;5.406;2023-09-19T12:06:21;3.30;;;1.40;;
16642;SDS011;8435;52.184;5.406;2023-09-19T12:08:51;4.50;;;1.35;;
16642;SDS011;8435;52.184;5.406;2023-09-19T12:11:19;3.90;;;1.50;;
16642;SDS011;8435;52.184;5.406;2023-09-19T12:13:48;5.07;;;1.42;;
16642;SDS011;8435;52.184;5.406;2023-09-19T12:16:18;2.35;;;1.20;;
16642;SDS011;8435;52.184;5.406;2023-09-19T12:18:48;3.30;;;1.58;;
16642;SDS011;8435;52.184;5.406;2023-09-19T12:21:27;2.10;;;1.15;;
16642;SDS011;8435;52.184;5.406;2023-09-19T12:24:03;4.13;;;1.27;;
16642;SDS011;8435;52.184;5.406;2023-09-19T12:26:38;3.03;;;1.23;;
16642;SDS011;8435;52.184;5.406;2023-09-19T12:29:10;2.78;;;1.27;;
16642;SDS011;8435;52.184;5.406;2023-09-19T12:31:49;3.03;;;1.55;;
16642;SDS011;8435;52.184;5.406;2023-09-19T12:34:23;2.85;;;1.40;;
16642;SDS011;8435;52.184;5.406;2023-09-19T12:37:10;4.22;;;1.48;;
16642;SDS011;8435;52.184;5.406;2023-09-19T12:39:46;1.55;;;1.13;;
16642;SDS011;8435;52.184;5.406;2023-09-19T12:42:16;3.55;;;1.27;;
16642;SDS011;8435;52.184;5.406;2023-09-19T12:44:44;4.07;;;1.73;;
16642;SDS011;8435;52.184;5.406;2023-09-19T12:47:13;3.00;;;1.38;;
16642;SDS011;8435;52.184;5.406;2023-09-19T12:52:46;3.60;;;1.98;;
16642;SDS011;8435;52.184;5.406;2023-09-19T12:55:21;2.63;;;1.55;;
16642;SDS011;8435;52.184;5.406;2023-09-19T12:57:56;2.92;;;1.10;;
16642;SDS011;8435;52.184;5.406;2023-09-19T13:00:33;3.47;;;1.20;;
16642;SDS011;8435;52.184;5.406;2023-09-19T13:03:14;4.32;;;1.77;;
16642;SDS011;8435;52.184;5.406;2023-09-19T13:05:51;4.25;;;1.63;;
16642;SDS011;8435;52.184;5.406;2023-09-19T13:08:21;2.50;;;1.48;;
16642;SDS011;8435;52.184;5.406;2023-09-19T13:11:05;2.45;;;1.20;;
16642;SDS011;8435;52.184;5.406;2023-09-19T13:13:36;3.67;;;1.63;;
16642;SDS011;8435;52.184;5.406;2023-09-19T13:16:04;2.15;;;1.10;;
16642;SDS011;8435;52.184;5.406;2023-09-19T13:18:43;1.92;;;0.90;;
16642;SDS011;8435;52.184;5.406;2023-09-19T13:21:11;3.35;;;1.52;;
16642;SDS011;8435;52.184;5.406;2023-09-19T13:23:48;3.50;;;1.35;;
16642;SDS011;8435;52.184;5.406;2023-09-19T13:26:16;3.90;;;1.20;;
16642;SDS011;8435;52.184;5.406;2023-09-19T13:28:43;3.30;;;2.92;;
16642;SDS011;8435;52.184;5.406;2023-09-19T13:31:13;2.85;;;1.25;;
16642;SDS011;8435;52.184;5.406;2023-09-19T13:33:42;1.73;;;1.20;;
16642;SDS011;8435;52.184;5.406;2023-09-19T13:36:10;2.45;;;1.17;;
16642;SDS011;8435;52.184;5.406;2023-09-19T13:38:38;3.45;;;1.10;;
16642;SDS011;8435;52.184;5.406;2023-09-19T13:41:06;3.30;;;1.13;;
16642;SDS011;8435;52.184;5.406;2023-09-19T13:43:33;3.35;;;1.70;;
16642;SDS011;8435;52.184;5.406;2023-09-19T13:46:00;1.83;;;0.95;;
16642;SDS011;8435;52.184;5.406;2023-09-19T13:48:27;1.23;;;1.02;;
16642;SDS011;8435;52.184;5.406;2023-09-19T13:50:55;3.10;;;1.50;;
16642;SDS011;8435;52.184;5.406;2023-09-19T13:53:23;3.22;;;1.20;;
16642;SDS011;8435;52.184;5.406;2023-09-19T13:55:50;2.78;;;0.98;;
16642;SDS011;8435;52.184;5.406;2023-09-19T13:58:19;2.78;;;1.00;;
16642;SDS011;8435;52.184;5.406;2023-09-19T14:00:46;2.00;;;1.25;;
16642;SDS011;8435;52.184;5.406;2023-09-19T14:03:13;1.88;;;0.90;;
16642;SDS011;8435;52.184;5.406;2023-09-19T14:05:40;2.53;;;1.15;;
16642;SDS011;8435;52.184;5.406;2023-09-19T14:08:07;2.45;;;1.10;;
16642;SDS011;8435;52.184;5.406;2023-09-19T14:10:34;6.57;;;1.10;;
16642;SDS011;8435;52.184;5.406;2023-09-19T14:13:01;1.80;;;1.13;;
16642;SDS011;8435;52.184;5.406;2023-09-19T14:15:28;2.95;;;1.00;;
16642;SDS011;8435;52.184;5.406;2023-09-19T14:17:55;2.70;;;1.40;;
16642;SDS011;8435;52.184;5.406;2023-09-19T14:20:24;2.70;;;1.27;;
16642;SDS011;8435;52.184;5.406;2023-09-19T14:22:51;2.45;;;1.10;;
16642;SDS011;8435;52.184;5.406;2023-09-19T14:25:21;3.42;;;2.47;;
16642;SDS011;8435;52.184;5.406;2023-09-19T14:27:48;3.78;;;1.45;;
16642;SDS011;8435;52.184;5.406;2023-09-19T14:30:15;3.42;;;1.40;;
16642;SDS011;8435;52.184;5.406;2023-09-19T14:32:43;4.30;;;1.58;;
16642;SDS011;8435;52.184;5.406;2023-09-19T14:35:10;4.72;;;1.65;;
16642;SDS011;8435;52.184;5.406;2023-09-19T14:37:40;2.78;;;1.38;;
16642;SDS011;8435;52.184;5.406;2023-09-19T14:40:07;3.10;;;1.60;;
16642;SDS011;8435;52.184;5.406;2023-09-19T14:42:35;2.90;;;1.48;;
16642;SDS011;8435;52.184;5.406;2023-09-19T14:45:05;5.20;;;1.60;;
16642;SDS011;8435;52.184;5.406;2023-09-19T14:47:33;2.30;;;1.33;;
16642;SDS011;8435;52.184;5.406;2023-09-19T14:50:03;3.25;;;1.42;;
16642;SDS011;8435;52.184;5.406;2023-09-19T14:52:31;5.22;;;4.47;;
16642;SDS011;8435;52.184;5.406;2023-09-19T14:54:58;4.97;;;2.33;;
16642;SDS011;8435;52.184;5.406;2023-09-19T14:57:26;5.32;;;2.03;;
16642;SDS011;8435;52.184;5.406;2023-09-19T14:59:54;4.18;;;2.38;;
16642;SDS011;8435;52.184;5.406;2023-09-19T15:02:21;3.55;;;2.13;;
16642;SDS011;8435;52.184;5.406;2023-09-19T15:04:49;2.95;;;1.70;;
16642;SDS011;8435;52.184;5.406;2023-09-19T15:07:19;3.63;;;1.98;;
16642;SDS011;8435;52.184;5.406;2023-09-19T15:09:45;2.17;;;1.30;;
16642;SDS011;8435;52.184;5.406;2023-09-19T15:12:12;3.03;;;1.70;;
16642;SDS011;8435;52.184;5.406;2023-09-19T15:14:40;2.72;;;2.03;;
16642;SDS011;8435;52.184;5.406;2023-09-19T15:17:07;3.72;;;2.00;;
16642;SDS011;8435;52.184;5.406;2023-09-19T15:19:34;3.83;;;1.95;;
16642;SDS011;8435;52.184;5.406;2023-09-19T15:22:03;2.08;;;1.63;;
16642;SDS011;8435;52.184;5.406;2023-09-19T15:24:32;5.15;;;2.47;;
16642;SDS011;8435;52.184;5.406;2023-09-19T15:26:59;2.67;;;1.90;;
16642;SDS011;8435;52.184;5.406;2023-09-19T15:29:26;3.25;;;1.70;;
16642;SDS011;8435;52.184;5.406;2023-09-19T15:31:54;2.90;;;1.73;;
16642;SDS011;8435;52.184;5.406;2023-09-19T15:34:27;4.00;;;1.98;;
16642;SDS011;8435;52.184;5.406;2023-09-19T15:36:54;2.22;;;1.58;;